createdAt,value
2023-04-04T00:03:01.506Z,103287.66
2023-04-04T00:08:04.396Z,103284.56
2023-04-04T00:13:09.168Z,103278.72
2023-04-04T00:18:13.409Z,103276.47
2023-04-04T00:23:15.222Z,103263.94
2023-04-04T00:28:19.472Z,103259.97
2023-04-04T00:33:21.684Z,103252.38
2023-04-04T00:38:25.796Z,103257.06
2023-04-04T00:43:27.467Z,103253.13
2023-04-04T00:48:29.732Z,103247.34
2023-04-04T00:53:32.235Z,103246.75
2023-04-04T00:58:34.111Z,103243.72
2023-04-04T01:03:35.846Z,103248.38
2023-04-04T01:08:39.757Z,103247.78
2023-04-04T01:13:44.385Z,103248.06
2023-04-04T01:18:54.075Z,103236.84
2023-04-04T01:24:04.411Z,103232.94
2023-04-04T01:29:27.737Z,103237.78
2023-04-04T01:35:08.406Z,103237.22
2023-04-04T01:40:37.482Z,103221.78
2023-04-04T01:45:40.918Z,103223.09
2023-04-04T01:50:50.052Z,103222.47
2023-04-04T01:55:52.172Z,103216.56
2023-04-04T02:00:55.278Z,103222.06
2023-04-04T02:06:00.161Z,103222.16
2023-04-04T02:11:04.720Z,103218.63
2023-04-04T02:16:07.240Z,103218.72
2023-04-04T02:21:09.063Z,103211.72
2023-04-04T02:26:13.325Z,103201.41
2023-04-04T02:31:15.276Z,103199.25
2023-04-04T02:36:22.174Z,103191.75
2023-04-04T02:41:26.734Z,103194.81
2023-04-04T02:46:31.010Z,103186.28
2023-04-04T02:51:38.226Z,103185.69
2023-04-04T02:56:40.171Z,103177.88
2023-04-04T03:01:44.729Z,103173.66
2023-04-04T03:06:48.320Z,103168.44
2023-04-04T03:11:55.342Z,103164.28
2023-04-04T03:16:57.534Z,103166.19
2023-04-04T03:22:04.577Z,103159.28
2023-04-04T03:27:09.238Z,103158.47
2023-04-04T03:32:11.169Z,103158.59
2023-04-04T03:37:15.575Z,103160.19
2023-04-04T03:42:17.311Z,103164.50
2023-04-04T03:47:19.609Z,103163.44
2023-04-04T03:52:21.458Z,103172.00
2023-04-04T03:57:23.214Z,103173.81
2023-04-04T04:02:24.996Z,103174.00
2023-04-04T04:07:28.961Z,103162.53
2023-04-04T04:12:30.745Z,103161.53
2023-04-04T04:17:32.745Z,103159.38
2023-04-04T04:22:40.542Z,103156.84
2023-04-04T04:27:47.080Z,103164.91
2023-04-04T04:32:51.719Z,103162.47
2023-04-04T04:37:57.325Z,103161.84
2023-04-04T04:42:59.150Z,103158.78
2023-04-04T04:48:01.243Z,103162.72
2023-04-04T04:53:08.436Z,103163.81
2023-04-04T04:58:11.212Z,103166.66
2023-04-04T05:03:17.193Z,103174.75
2023-04-04T05:08:23.526Z,103178.59
2023-04-04T05:13:37.643Z,103178.50
2023-04-04T05:18:40.383Z,103183.66
2023-04-04T05:23:48.649Z,103183.72
2023-04-04T05:28:54.543Z,103184.03
2023-04-04T05:34:08.203Z,103180.03
2023-04-04T05:39:10.449Z,103184.59
2023-04-04T05:44:20.028Z,103183.81
2023-04-04T05:49:22.152Z,103188.25
2023-04-04T05:54:35.752Z,103189.81
2023-04-04T05:59:42.846Z,103187.91
2023-04-04T06:04:51.266Z,103186.00
2023-04-04T06:10:03.259Z,103177.00
2023-04-04T06:15:08.592Z,103190.53
2023-04-04T06:20:11.857Z,103185.63
2023-04-04T06:25:14.674Z,103185.03
2023-04-04T06:30:18.234Z,103187.69
2023-04-04T06:35:24.160Z,103189.44
2023-04-04T06:40:32.939Z,103182.25
2023-04-04T06:45:35.914Z,103188.44
2023-04-04T06:50:38.084Z,103178.91
2023-04-04T06:55:43.700Z,103177.13
2023-04-04T07:00:47.980Z,103175.31
2023-04-04T07:05:52.882Z,103178.94
2023-04-04T07:10:54.732Z,103169.38
2023-04-04T07:15:58.749Z,103172.75
2023-04-04T07:21:02.863Z,103176.22
2023-04-04T07:26:06.866Z,103168.41
2023-04-04T07:31:08.749Z,103158.97
2023-04-04T07:36:11.037Z,103160.81
2023-04-04T07:41:15.797Z,103149.09
2023-04-04T07:46:18.190Z,103148.25
2023-04-04T07:51:28.248Z,103140.69
2023-04-04T07:56:32.271Z,103147.09
2023-04-04T08:01:34.025Z,103148.47
2023-04-04T08:06:36.928Z,103139.31
2023-04-04T08:11:41.561Z,103145.34
2023-04-04T08:16:43.621Z,103148.91
2023-04-04T08:21:47.632Z,103144.78
2023-04-04T08:26:58.276Z,103152.69
2023-04-04T08:32:09.607Z,103152.09
2023-04-04T08:37:11.474Z,103158.25
2023-04-04T08:42:20.806Z,103159.47
2023-04-04T08:47:24.702Z,103150.63
2023-04-04T08:52:31.416Z,103150.84
2023-04-04T08:57:33.557Z,103140.72
2023-04-04T09:02:58.075Z,103136.22
2023-04-04T09:08:07.271Z,103143.88
2023-04-04T09:13:16.281Z,103141.53
2023-04-04T09:18:19.023Z,103136.31
2023-04-04T09:23:24.137Z,103135.72
2023-04-04T09:28:26.408Z,103133.59
2023-04-04T09:33:34.141Z,103136.84
2023-04-04T09:38:37.677Z,103141.72
2023-04-04T09:43:39.917Z,103142.66
2023-04-04T09:48:51.561Z,103135.91
2023-04-04T09:53:53.297Z,103129.78
2023-04-04T09:59:03.707Z,103134.25
2023-04-04T10:04:11.935Z,103139.81
2023-04-04T10:09:15.583Z,103133.84
2023-04-04T10:14:17.370Z,103137.31
2023-04-04T10:19:21.412Z,103143.22
2023-04-04T10:24:23.202Z,103129.06
2023-04-04T10:29:27.972Z,103132.88
2023-04-04T10:34:43.398Z,103128.59
2023-04-04T10:39:52.097Z,103135.28
2023-04-04T10:44:56.324Z,103124.63
2023-04-04T10:49:58.220Z,103125.47
2023-04-04T10:55:06.484Z,103117.91
2023-04-04T11:00:13.069Z,103109.31
2023-04-04T11:05:41.039Z,103109.75
2023-04-04T11:10:50.482Z,103106.72
2023-04-04T11:16:01.016Z,103098.81
2023-04-04T11:21:05.136Z,103092.09
2023-04-04T11:26:07.530Z,103090.19
2023-04-04T11:31:18.116Z,103084.50
2023-04-04T11:36:35.252Z,103090.06
2023-04-04T11:41:59.836Z,103080.78
2023-04-04T11:47:11.805Z,103081.47
2023-04-04T11:52:19.220Z,103065.31
2023-04-04T11:57:21.632Z,103056.09
2023-04-04T12:02:32.528Z,103064.72
2023-04-04T12:07:35.320Z,103053.56
2023-04-04T12:12:44.651Z,103045.50
2023-04-04T12:17:46.385Z,103041.28
2023-04-04T12:22:51.773Z,103042.84
2023-04-04T12:27:57.483Z,103047.66
2023-04-04T12:32:59.309Z,103043.28
2023-04-04T12:38:07.315Z,103028.25
2023-04-04T12:43:09.656Z,103031.78
2023-04-04T12:48:15.654Z,103019.50
2023-04-04T12:53:28.945Z,103009.81
2023-04-04T12:58:32.034Z,103004.03
2023-04-04T13:03:35.032Z,102996.28
2023-04-04T13:08:36.928Z,102987.28
2023-04-04T13:13:40.790Z,102985.88
2023-04-04T13:18:44.254Z,102978.97
2023-04-04T13:23:48.454Z,102972.38
2023-04-04T13:28:52.460Z,102964.75
2023-04-04T13:33:54.206Z,102961.69
2023-04-04T13:38:58.348Z,102958.75
2023-04-04T13:44:00.402Z,102948.88
2023-04-04T13:49:02.365Z,102944.25
2023-04-04T13:54:08.890Z,102941.31
2023-04-04T13:59:15.575Z,102935.00
2023-04-04T14:04:23.933Z,102922.28
2023-04-04T14:09:29.404Z,102914.44
2023-04-04T14:14:35.558Z,102913.72
2023-04-04T14:19:41.623Z,102919.25
2023-04-04T14:24:45.603Z,102913.63
2023-04-04T14:29:49.534Z,102914.44
2023-04-04T14:34:51.388Z,102903.81
2023-04-04T14:39:56.271Z,102910.06
2023-04-04T14:45:02.357Z,102901.22
2023-04-04T14:50:04.364Z,102891.34
2023-04-04T14:55:10.055Z,102890.59
2023-04-04T15:00:20.580Z,102882.56
2023-04-04T15:05:24.510Z,102881.53
2023-04-04T15:10:28.262Z,102873.94
2023-04-04T15:15:32.598Z,102884.41
2023-04-04T15:20:40.229Z,102872.28
2023-04-04T15:25:42.186Z,102873.34
2023-04-04T15:30:44.067Z,102863.50
2023-04-04T15:35:50.299Z,102861.63
2023-04-04T15:40:54.325Z,102850.75
2023-04-04T15:45:56.367Z,102852.84
2023-04-04T15:51:02.304Z,102851.69
2023-04-04T15:56:08.921Z,102854.66
2023-04-04T16:01:13.209Z,102852.03
2023-04-04T16:06:19.720Z,102848.28
2023-04-04T16:11:21.866Z,102854.41
2023-04-04T16:16:25.994Z,102852.56
2023-04-04T16:21:27.904Z,102844.19
2023-04-04T16:26:29.686Z,102849.63
2023-04-04T16:31:32.149Z,102846.69
2023-04-04T16:36:36.422Z,102839.75
2023-04-04T16:41:40.977Z,102834.81
2023-04-04T16:46:47.196Z,102836.16
2023-04-04T16:51:49.517Z,102826.38
2023-04-04T16:56:53.311Z,102820.31
2023-04-04T17:01:54.985Z,102813.22
2023-04-04T17:06:59.098Z,102810.50
2023-04-04T17:12:01.407Z,102807.31
2023-04-04T17:17:07.889Z,102803.25
2023-04-04T17:22:09.641Z,102805.03
2023-04-04T17:27:16.145Z,102805.66
2023-04-04T17:32:17.852Z,102806.97
2023-04-04T17:37:19.664Z,102809.09
2023-04-04T17:42:21.456Z,102803.47
2023-04-04T17:47:26.123Z,102804.44
2023-04-04T17:52:30.344Z,102802.53
2023-04-04T17:57:32.350Z,102797.19
2023-04-04T18:02:34.242Z,102799.59
2023-04-04T18:07:37.172Z,102790.56
2023-04-04T18:12:44.527Z,102790.41
2023-04-04T18:17:53.648Z,102788.63
2023-04-04T18:22:58.520Z,102790.16
2023-04-04T18:28:02.065Z,102789.34
2023-04-04T18:33:08.530Z,102780.72
2023-04-04T18:38:12.716Z,102782.69
2023-04-04T18:43:17.047Z,102790.88
2023-04-04T18:48:18.837Z,102787.44
2023-04-04T18:53:29.203Z,102780.53
2023-04-04T18:58:35.202Z,102785.50
2023-04-04T19:03:42.867Z,102782.38
2023-04-04T19:08:44.732Z,102778.19
2023-04-04T19:13:48.796Z,102781.97
2023-04-04T19:18:52.646Z,102779.78
2023-04-04T19:23:57.723Z,102776.41
2023-04-04T19:28:59.431Z,102779.84
2023-04-04T19:34:03.457Z,102776.28
2023-04-04T19:39:08.147Z,102776.09
2023-04-04T19:44:23.007Z,102785.56
2023-04-04T19:49:28.005Z,102780.38
2023-04-04T19:54:39.030Z,102798.53
2023-04-04T20:00:13.399Z,102782.06
2023-04-04T20:05:29.649Z,102781.31
2023-04-04T20:10:42.475Z,102774.88
2023-04-04T20:15:47.695Z,102773.06
2023-04-04T20:21:10.908Z,102772.88
2023-04-04T20:26:37.866Z,102779.09
2023-04-04T20:32:15.647Z,102777.09
2023-04-04T20:37:21.746Z,102775.84
2023-04-04T20:42:26.309Z,102775.34
2023-04-04T20:47:51.634Z,102776.56
2023-04-04T20:52:58.524Z,102774.53
2023-04-04T20:58:25.900Z,102766.94
2023-04-04T21:03:35.544Z,102758.69
2023-04-04T21:08:50.076Z,102758.19
2023-04-04T21:13:54.610Z,102762.16
2023-04-04T21:19:00.654Z,102769.13
2023-04-04T21:24:02.947Z,102766.47
2023-04-04T21:29:23.680Z,102758.56
2023-04-04T21:34:26.924Z,102764.88
2023-04-04T21:39:30.003Z,102764.53
2023-04-04T21:44:34.584Z,102748.00
2023-04-04T21:49:38.535Z,102745.97
2023-04-04T21:54:45.451Z,102738.28
2023-04-04T21:59:52.135Z,102735.91
2023-04-04T22:04:59.704Z,102735.28
2023-04-04T22:10:04.291Z,102724.22
2023-04-04T22:15:08.940Z,102729.50
2023-04-04T22:20:12.809Z,102721.56
2023-04-04T22:25:21.590Z,102731.47
2023-04-04T22:30:23.378Z,102728.22
2023-04-04T22:35:28.076Z,102718.50
2023-04-04T22:40:33.800Z,102722.09
2023-04-04T22:45:37.786Z,102717.63
2023-04-04T22:50:41.832Z,102714.84
2023-04-04T22:55:45.916Z,102708.09
2023-04-04T23:00:48.007Z,102718.94
2023-04-04T23:05:51.891Z,102722.09
2023-04-04T23:10:56.239Z,102716.09
2023-04-04T23:15:58.038Z,102707.66
2023-04-04T23:21:01.974Z,102708.84
2023-04-04T23:26:06.418Z,102701.16
2023-04-04T23:31:10.716Z,102707.53
2023-04-04T23:36:12.447Z,102702.44
2023-04-04T23:41:14.447Z,102688.38
2023-04-04T23:46:16.208Z,102702.63
2023-04-04T23:51:17.946Z,102691.28
2023-04-04T23:56:19.612Z,102691.16
